sensor_id;sensor_type;location;lat;lon;timestamp;pressure;altitude;pressure_sealevel;temperature;humidity
75438;BME280;64015;49.392;15.582;2023-02-19T00:03:55;95727.38;;;6.85;96.19
75438;BME280;64015;49.392;15.582;2023-02-19T00:06:22;95729.44;;;6.83;97.35
75438;BME280;64015;49.392;15.582;2023-02-19T00:08:49;95727.72;;;6.72;100.00
75438;BME280;64015;49.392;15.582;2023-02-19T00:11:17;95721.88;;;6.65;100.00
75438;BME280;64015;49.392;15.582;2023-02-19T00:13:45;95735.06;;;6.53;100.00
75438;BME280;64015;49.392;15.582;2023-02-19T00:16:22;95732.31;;;6.43;100.00
75438;BME280;64015;49.392;15.582;2023-02-19T00:18:49;95732.16;;;6.33;100.00
75438;BME280;64015;49.392;15.582;2023-02-19T00:21:15;95737.81;;;6.25;100.00
75438;BME280;64015;49.392;15.582;2023-02-19T00:23:41;95727.44;;;6.30;100.00
75438;BME280;64015;49.392;15.582;2023-02-19T00:26:09;95720.28;;;6.25;100.00
75438;BME280;64015;49.392;15.582;2023-02-19T00:28:36;95722.19;;;6.30;100.00
75438;BME280;64015;49.392;15.582;2023-02-19T00:31:11;95724.16;;;6.23;100.00
75438;BME280;64015;49.392;15.582;2023-02-19T00:33:40;95718.41;;;6.21;100.00
75438;BME280;64015;49.392;15.582;2023-02-19T00:36:06;95714.72;;;6.22;100.00
75438;BME280;64015;49.392;15.582;2023-02-19T00:38:35;95717.91;;;6.24;100.00
75438;BME280;64015;49.392;15.582;2023-02-19T00:41:01;95709.00;;;6.25;100.00
75438;BME280;64015;49.392;15.582;2023-02-19T00:46:17;95700.81;;;6.38;100.00
75438;BME280;64015;49.392;15.582;2023-02-19T00:48:43;95695.72;;;6.48;100.00
75438;BME280;64015;49.392;15.582;2023-02-19T00:51:10;95695.44;;;6.50;100.00
75438;BME280;64015;49.392;15.582;2023-02-19T00:53:36;95682.66;;;6.53;100.00
75438;BME280;64015;49.392;15.582;2023-02-19T00:56:02;95691.88;;;6.56;100.00
75438;BME280;64015;49.392;15.582;2023-02-19T00:58:28;95690.91;;;6.62;100.00
75438;BME280;64015;49.392;15.582;2023-02-19T01:00:53;95677.13;;;6.71;100.00
75438;BME280;64015;49.392;15.582;2023-02-19T01:03:19;95673.03;;;6.81;100.00
75438;BME280;64015;49.392;15.582;2023-02-19T01:05:48;95674.38;;;6.83;100.00
75438;BME280;64015;49.392;15.582;2023-02-19T01:08:14;95678.28;;;6.81;100.00
75438;BME280;64015;49.392;15.582;2023-02-19T01:10:40;95679.91;;;6.87;100.00
75438;BME280;64015;49.392;15.582;2023-02-19T01:13:06;95668.63;;;6.86;100.00
75438;BME280;64015;49.392;15.582;2023-02-19T01:15:32;95682.53;;;6.87;100.00
75438;BME280;64015;49.392;15.582;2023-02-19T01:17:58;95699.91;;;6.93;100.00
75438;BME280;64015;49.392;15.582;2023-02-19T01:20:24;95675.81;;;6.96;99.96
75438;BME280;64015;49.392;15.582;2023-02-19T01:22:53;95687.09;;;6.96;98.78
75438;BME280;64015;49.392;15.582;2023-02-19T01:25:19;95695.72;;;6.92;99.14
75438;BME280;64015;49.392;15.582;2023-02-19T01:27:45;95698.63;;;6.95;97.96
75438;BME280;64015;49.392;15.582;2023-02-19T01:30:11;95696.06;;;7.00;97.34
75438;BME280;64015;49.392;15.582;2023-02-19T01:32:37;95686.91;;;7.03;97.24
75438;BME280;64015;49.392;15.582;2023-02-19T01:35:03;95681.66;;;7.03;97.03
75438;BME280;64015;49.392;15.582;2023-02-19T01:37:29;95680.56;;;6.99;97.20
75438;BME280;64015;49.392;15.582;2023-02-19T01:39:54;95665.63;;;6.99;96.93
75438;BME280;64015;49.392;15.582;2023-02-19T01:42:20;95659.59;;;6.99;96.98
75438;BME280;64015;49.392;15.582;2023-02-19T01:47:13;95652.47;;;6.94;96.69
75438;BME280;64015;49.392;15.582;2023-02-19T01:52:22;95655.81;;;6.90;97.42
75438;BME280;64015;49.392;15.582;2023-02-19T01:54:50;95657.88;;;6.88;98.23
75438;BME280;64015;49.392;15.582;2023-02-19T01:57:22;95654.47;;;6.87;98.25
75438;BME280;64015;49.392;15.582;2023-02-19T01:59:52;95662.31;;;6.82;98.59
75438;BME280;64015;49.392;15.582;2023-02-19T02:02:23;95661.97;;;6.79;99.42
75438;BME280;64015;49.392;15.582;2023-02-19T02:04:54;95672.00;;;6.82;99.25
75438;BME280;64015;49.392;15.582;2023-02-19T02:07:21;95670.97;;;6.83;99.37
75438;BME280;64015;49.392;15.582;2023-02-19T02:10:05;95671.19;;;6.81;99.36
75438;BME280;64015;49.392;15.582;2023-02-19T02:12:47;95663.94;;;6.88;98.73
75438;BME280;64015;49.392;15.582;2023-02-19T02:15:14;95662.97;;;6.94;98.23
75438;BME280;64015;49.392;15.582;2023-02-19T02:18:04;95656.81;;;6.84;98.43
75438;BME280;64015;49.392;15.582;2023-02-19T02:23:22;95642.56;;;6.74;99.32
75438;BME280;64015;49.392;15.582;2023-02-19T02:30:55;95634.16;;;6.72;98.73
75438;BME280;64015;49.392;15.582;2023-02-19T02:35:57;95627.19;;;6.61;99.19
75438;BME280;64015;49.392;15.582;2023-02-19T02:38:27;95629.25;;;6.59;99.40
75438;BME280;64015;49.392;15.582;2023-02-19T02:40:54;95649.19;;;6.60;99.60
75438;BME280;64015;49.392;15.582;2023-02-19T02:43:21;95636.34;;;6.59;99.87
75438;BME280;64015;49.392;15.582;2023-02-19T02:45:46;95640.31;;;6.61;98.60
75438;BME280;64015;49.392;15.582;2023-02-19T02:48:35;95628.22;;;6.60;99.25
75438;BME280;64015;49.392;15.582;2023-02-19T02:51:28;95631.41;;;6.62;98.94
75438;BME280;64015;49.392;15.582;2023-02-19T02:57:01;95623.34;;;6.69;98.37
75438;BME280;64015;49.392;15.582;2023-02-19T02:59:31;95619.88;;;6.63;98.45
75438;BME280;64015;49.392;15.582;2023-02-19T03:02:14;95621.75;;;6.68;98.21
75438;BME280;64015;49.392;15.582;2023-02-19T03:04:54;95616.97;;;6.60;98.89
75438;BME280;64015;49.392;15.582;2023-02-19T03:07:55;95613.81;;;6.58;99.09
75438;BME280;64015;49.392;15.582;2023-02-19T03:11:09;95607.28;;;6.60;98.84
75438;BME280;64015;49.392;15.582;2023-02-19T03:14:17;95619.41;;;6.66;98.52
75438;BME280;64015;49.392;15.582;2023-02-19T03:17:18;95605.25;;;6.67;98.69
75438;BME280;64015;49.392;15.582;2023-02-19T03:20:07;95605.25;;;6.67;99.29
75438;BME280;64015;49.392;15.582;2023-02-19T03:22:36;95596.31;;;6.63;99.10
75438;BME280;64015;49.392;15.582;2023-02-19T03:25:11;95603.13;;;6.64;99.38
75438;BME280;64015;49.392;15.582;2023-02-19T03:27:59;95603.16;;;6.69;99.31
75438;BME280;64015;49.392;15.582;2023-02-19T03:30:32;95586.84;;;6.62;99.39
75438;BME280;64015;49.392;15.582;2023-02-19T03:33:12;95586.88;;;6.67;98.96
75438;BME280;64015;49.392;15.582;2023-02-19T03:35:46;95585.38;;;6.71;98.52
75438;BME280;64015;49.392;15.582;2023-02-19T03:38:16;95587.19;;;6.71;98.30
75438;BME280;64015;49.392;15.582;2023-02-19T03:40:58;95590.84;;;6.70;98.64
75438;BME280;64015;49.392;15.582;2023-02-19T03:46:40;95573.53;;;6.69;99.13
75438;BME280;64015;49.392;15.582;2023-02-19T03:49:32;95557.53;;;6.65;98.92
75438;BME280;64015;49.392;15.582;2023-02-19T03:52:20;95562.28;;;6.68;98.17
75438;BME280;64015;49.392;15.582;2023-02-19T03:55:02;95569.66;;;6.71;97.62
75438;BME280;64015;49.392;15.582;2023-02-19T03:57:38;95561.75;;;6.66;98.31
75438;BME280;64015;49.392;15.582;2023-02-19T04:02:41;95549.44;;;6.67;98.19
75438;BME280;64015;49.392;15.582;2023-02-19T04:05:14;95544.72;;;6.69;97.16
75438;BME280;64015;49.392;15.582;2023-02-19T04:07:44;95539.19;;;6.65;97.66
75438;BME280;64015;49.392;15.582;2023-02-19T04:10:12;95562.56;;;6.72;97.15
75438;BME280;64015;49.392;15.582;2023-02-19T04:12:40;95553.97;;;6.77;96.74
75438;BME280;64015;49.392;15.582;2023-02-19T04:15:15;95558.69;;;6.74;96.73
75438;BME280;64015;49.392;15.582;2023-02-19T04:17:49;95550.25;;;6.72;96.80
75438;BME280;64015;49.392;15.582;2023-02-19T04:20:17;95553.44;;;6.74;96.42
75438;BME280;64015;49.392;15.582;2023-02-19T04:22:43;95546.09;;;6.77;96.37
75438;BME280;64015;49.392;15.582;2023-02-19T04:25:09;95542.72;;;6.76;96.50
75438;BME280;64015;49.392;15.582;2023-02-19T04:27:44;95532.41;;;6.69;97.07
75438;BME280;64015;49.392;15.582;2023-02-19T04:30:11;95545.50;;;6.69;97.17
75438;BME280;64015;49.392;15.582;2023-02-19T04:32:37;95522.22;;;6.73;96.58
75438;BME280;64015;49.392;15.582;2023-02-19T04:35:07;95515.16;;;6.73;96.44
75438;BME280;64015;49.392;15.582;2023-02-19T04:37:32;95516.75;;;6.74;96.47
75438;BME280;64015;49.392;15.582;2023-02-19T04:39:58;95517.53;;;6.75;96.37
75438;BME280;64015;49.392;15.582;2023-02-19T04:42:24;95529.84;;;6.74;95.92
75438;BME280;64015;49.392;15.582;2023-02-19T04:44:49;95504.69;;;6.79;95.58
75438;BME280;64015;49.392;15.582;2023-02-19T04:47:15;95506.25;;;6.74;96.05
75438;BME280;64015;49.392;15.582;2023-02-19T04:49:43;95496.03;;;6.78;95.25
75438;BME280;64015;49.392;15.582;2023-02-19T04:52:09;95478.00;;;6.82;95.21
75438;BME280;64015;49.392;15.582;2023-02-19T04:54:35;95474.09;;;6.84;94.92
75438;BME280;64015;49.392;15.582;2023-02-19T04:57:00;95458.34;;;6.84;94.81
75438;BME280;64015;49.392;15.582;2023-02-19T04:59:27;95465.94;;;6.81;94.90
75438;BME280;64015;49.392;15.582;2023-02-19T05:01:52;95467.53;;;6.87;94.80
75438;BME280;64015;49.392;15.582;2023-02-19T05:04:18;95473.28;;;6.84;95.12
75438;BME280;64015;49.392;15.582;2023-02-19T05:06:45;95493.22;;;6.85;95.43
75438;BME280;64015;49.392;15.582;2023-02-19T05:09:11;95495.84;;;6.85;95.40
75438;BME280;64015;49.392;15.582;2023-02-19T05:11:37;95472.28;;;6.90;94.63
75438;BME280;64015;49.392;15.582;2023-02-19T05:14:02;95472.84;;;6.97;94.23
75438;BME280;64015;49.392;15.582;2023-02-19T05:16:28;95467.34;;;6.93;94.58
75438;BME280;64015;49.392;15.582;2023-02-19T05:18:54;95472.84;;;6.97;94.05
75438;BME280;64015;49.392;15.582;2023-02-19T05:21:19;95471.81;;;6.98;93.99
75438;BME280;64015;49.392;15.582;2023-02-19T05:23:45;95468.13;;;6.94;94.75
75438;BME280;64015;49.392;15.582;2023-02-19T05:26:14;95460.28;;;6.94;94.42
75438;BME280;64015;49.392;15.582;2023-02-19T05:28:48;95457.13;;;6.97;94.33
75438;BME280;64015;49.392;15.582;2023-02-19T05:31:14;95447.19;;;6.99;94.18
75438;BME280;64015;49.392;15.582;2023-02-19T05:33:40;95480.25;;;7.05;93.96
75438;BME280;64015;49.392;15.582;2023-02-19T05:36:09;95449.59;;;7.05;94.38
75438;BME280;64015;49.392;15.582;2023-02-19T05:38:36;95453.00;;;7.06;94.51
75438;BME280;64015;49.392;15.582;2023-02-19T05:41:18;95451.69;;;7.03;95.27
75438;BME280;64015;49.392;15.582;2023-02-19T05:43:45;95454.81;;;7.00;95.95
75438;BME280;64015;49.392;15.582;2023-02-19T05:46:13;95470.78;;;6.99;96.57
75438;BME280;64015;49.392;15.582;2023-02-19T05:48:40;95458.44;;;6.94;97.38
75438;BME280;64015;49.392;15.582;2023-02-19T05:51:08;95441.06;;;6.88;98.15
75438;BME280;64015;49.392;15.582;2023-02-19T05:53:34;95446.56;;;6.87;98.32
75438;BME280;64015;49.392;15.582;2023-02-19T05:56:00;95440.50;;;6.81;99.07
75438;BME280;64015;49.392;15.582;2023-02-19T05:58:26;95451.53;;;6.83;99.31
75438;BME280;64015;49.392;15.582;2023-02-19T06:00:53;95457.56;;;6.84;99.02
75438;BME280;64015;49.392;15.582;2023-02-19T06:03:19;95458.34;;;6.84;99.26
75438;BME280;64015;49.392;15.582;2023-02-19T06:05:45;95473.25;;;6.79;99.46
75438;BME280;64015;49.392;15.582;2023-02-19T06:08:12;95466.22;;;6.84;98.90
75438;BME280;64015;49.392;15.582;2023-02-19T06:10:39;95468.84;;;6.84;98.34
75438;BME280;64015;49.392;15.582;2023-02-19T06:13:06;95474.38;;;6.88;97.92
75438;BME280;64015;49.392;15.582;2023-02-19T06:15:32;95467.59;;;6.92;97.53
75438;BME280;64015;49.392;15.582;2023-02-19T06:17:58;95484.38;;;6.96;96.32
75438;BME280;64015;49.392;15.582;2023-02-19T06:20:23;95470.75;;;6.94;96.28
75438;BME280;64015;49.392;15.582;2023-02-19T06:22:49;95490.41;;;6.96;95.59
75438;BME280;64015;49.392;15.582;2023-02-19T06:25:15;95488.59;;;6.97;95.98
75438;BME280;64015;49.392;15.582;2023-02-19T06:27:41;95483.88;;;6.94;97.45
75438;BME280;64015;49.392;15.582;2023-02-19T06:30:07;95490.41;;;6.91;97.64
75438;BME280;64015;49.392;15.582;2023-02-19T06:32:33;95497.94;;;6.83;98.93
75438;BME280;64015;49.392;15.582;2023-02-19T06:34:58;95471.13;;;6.76;100.00
75438;BME280;64015;49.392;15.582;2023-02-19T06:37:24;95471.09;;;6.70;100.00
75438;BME280;64015;49.392;15.582;2023-02-19T06:39:50;95469.25;;;6.71;100.00
75438;BME280;64015;49.392;15.582;2023-02-19T06:42:16;95477.34;;;6.69;100.00
75438;BME280;64015;49.392;15.582;2023-02-19T06:44:41;95468.22;;;6.72;100.00
75438;BME280;64015;49.392;15.582;2023-02-19T06:47:07;95486.56;;;6.72;100.00
75438;BME280;64015;49.392;15.582;2023-02-19T06:49:33;95473.22;;;6.73;100.00
75438;BME280;64015;49.392;15.582;2023-02-19T06:51:58;95461.72;;;6.80;100.00
75438;BME280;64015;49.392;15.582;2023-02-19T06:54:25;95467.22;;;6.78;100.00
75438;BME280;64015;49.392;15.582;2023-02-19T06:56:51;95494.19;;;6.73;100.00
75438;BME280;64015;49.392;15.582;2023-02-19T06:59:16;95493.66;;;6.77;100.00
75438;BME280;64015;49.392;15.582;2023-02-19T07:01:43;95487.06;;;6.69;100.00
75438;BME280;64015;49.392;15.582;2023-02-19T07:04:10;95491.50;;;6.68;100.00
75438;BME280;64015;49.392;15.582;2023-02-19T07:06:36;95507.19;;;6.63;100.00
75438;BME280;64015;49.392;15.582;2023-02-19T07:09:03;95483.31;;;6.60;100.00
75438;BME280;64015;49.392;15.582;2023-02-19T07:11:30;95522.84;;;6.58;100.00
75438;BME280;64015;49.392;15.582;2023-02-19T07:13:57;95525.22;;;6.60;100.00
75438;BME280;64015;49.392;15.582;2023-02-19T07:16:24;95516.53;;;6.54;100.00
75438;BME280;64015;49.392;15.582;2023-02-19T07:18:50;95498.88;;;6.45;100.00
75438;BME280;64015;49.392;15.582;2023-02-19T07:21:16;95487.59;;;6.39;100.00
75438;BME280;64015;49.392;15.582;2023-02-19T07:23:43;95504.06;;;6.40;100.00
75438;BME280;64015;49.392;15.582;2023-02-19T07:26:11;95503.03;;;6.41;100.00
75438;BME280;64015;49.392;15.582;2023-02-19T07:28:39;95498.06;;;6.39;100.00
75438;BME280;64015;49.392;15.582;2023-02-19T07:31:05;95503.31;;;6.39;100.00
75438;BME280;64015;49.392;15.582;2023-02-19T07:33:30;95498.06;;;6.39;100.00
75438;BME280;64015;49.392;15.582;2023-02-19T07:35:56;95490.19;;;6.39;100.00
75438;BME280;64015;49.392;15.582;2023-02-19T07:38:24;95494.88;;;6.37;100.00
75438;BME280;64015;49.392;15.582;2023-02-19T07:40:54;95489.13;;;6.40;100.00
75438;BME280;64015;49.392;15.582;2023-02-19T07:43:20;95492.38;;;6.47;100.00
75438;BME280;64015;49.392;15.582;2023-02-19T07:45:47;95496.63;;;6.53;100.00
75438;BME280;64015;49.392;15.582;2023-02-19T07:48:13;95491.13;;;6.55;100.00
75438;BME280;64015;49.392;15.582;2023-02-19T07:50:39;95493.06;;;6.64;100.00
75438;BME280;64015;49.392;15.582;2023-02-19T07:53:04;95493.19;;;6.80;100.00
75438;BME280;64015;49.392;15.582;2023-02-19T07:55:31;95504.56;;;6.95;100.00
75438;BME280;64015;49.392;15.582;2023-02-19T07:57:59;95506.00;;;7.08;100.00
75438;BME280;64015;49.392;15.582;2023-02-19T08:00:25;95497.09;;;7.14;100.00
75438;BME280;64015;49.392;15.582;2023-02-19T08:02:53;95499.25;;;7.17;100.00
75438;BME280;64015;49.392;15.582;2023-02-19T08:05:26;95507.44;;;7.26;100.00
75438;BME280;64015;49.392;15.582;2023-02-19T08:07:52;95516.47;;;7.40;99.19
75438;BME280;64015;49.392;15.582;2023-02-19T08:10:18;95509.44;;;7.51;98.09
75438;BME280;64015;49.392;15.582;2023-02-19T08:13:03;95520.47;;;7.53;96.51
75438;BME280;64015;49.392;15.582;2023-02-19T08:15:45;95532.28;;;7.55;97.10
75438;BME280;64015;49.392;15.582;2023-02-19T08:18:13;95525.44;;;7.49;96.25
75438;BME280;64015;49.392;15.582;2023-02-19T08:20:39;95546.69;;;7.47;96.20
75438;BME280;64015;49.392;15.582;2023-02-19T08:23:05;95539.84;;;7.46;95.74
75438;BME280;64015;49.392;15.582;2023-02-19T08:25:32;95530.94;;;7.47;95.43
75438;BME280;64015;49.392;15.582;2023-02-19T08:27:57;95550.84;;;7.43;94.65
75438;BME280;64015;49.392;15.582;2023-02-19T08:30:26;95565.22;;;7.36;94.75
75438;BME280;64015;49.392;15.582;2023-02-19T08:32:52;95538.19;;;7.35;95.28
75438;BME280;64015;49.392;15.582;2023-02-19T08:35:17;95536.59;;;7.34;94.89
75438;BME280;64015;49.392;15.582;2023-02-19T08:37:43;95541.31;;;7.32;94.75
75438;BME280;64015;49.392;15.582;2023-02-19T08:40:10;95537.38;;;7.30;95.00
75438;BME280;64015;49.392;15.582;2023-02-19T08:42:35;95539.47;;;7.33;94.68
75438;BME280;64015;49.392;15.582;2023-02-19T08:45:01;95548.16;;;7.33;93.91
75438;BME280;64015;49.392;15.582;2023-02-19T08:47:27;95543.44;;;7.35;93.96
75438;BME280;64015;49.392;15.582;2023-02-19T08:49:53;95584.38;;;7.36;94.23
75438;BME280;64015;49.392;15.582;2023-02-19T08:52:18;95563.16;;;7.38;93.74
75438;BME280;64015;49.392;15.582;2023-02-19T08:54:44;95540.34;;;7.43;92.69
75438;BME280;64015;49.392;15.582;2023-02-19T08:57:10;95544.59;;;7.49;93.24
75438;BME280;64015;49.392;15.582;2023-02-19T08:59:36;95540.72;;;7.57;94.35
75438;BME280;64015;49.392;15.582;2023-02-19T09:02:02;95538.34;;;7.56;94.69
75438;BME280;64015;49.392;15.582;2023-02-19T09:04:30;95552.50;;;7.55;95.49
75438;BME280;64015;49.392;15.582;2023-02-19T09:06:56;95564.59;;;7.56;96.07
75438;BME280;64015;49.392;15.582;2023-02-19T09:09:22;95539.38;;;7.55;98.82
75438;BME280;64015;49.392;15.582;2023-02-19T09:11:48;95545.13;;;7.52;99.44
75438;BME280;64015;49.392;15.582;2023-02-19T09:14:13;95561.00;;;7.30;100.00
75438;BME280;64015;49.392;15.582;2023-02-19T09:16:39;95550.16;;;7.21;100.00
75438;BME280;64015;49.392;15.582;2023-02-19T09:19:05;95542.78;;;7.18;100.00
75438;BME280;64015;49.392;15.582;2023-02-19T09:21:31;95553.84;;;7.25;100.00
75438;BME280;64015;49.392;15.582;2023-02-19T09:23:57;95543.94;;;7.32;100.00
75438;BME280;64015;49.392;15.582;2023-02-19T09:26:22;95542.47;;;7.46;100.00
75438;BME280;64015;49.392;15.582;2023-02-19T09:28:49;95571.09;;;7.48;99.34
75438;BME280;64015;49.392;15.582;2023-02-19T09:31:15;95558.28;;;7.57;99.52
75438;BME280;64015;49.392;15.582;2023-02-19T09:33:42;95560.88;;;7.52;100.00
75438;BME280;64015;49.392;15.582;2023-02-19T09:36:08;95565.22;;;7.36;100.00
75438;BME280;64015;49.392;15.582;2023-02-19T09:38:34;95553.38;;;7.28;100.00
75438;BME280;64015;49.392;15.582;2023-02-19T09:41:07;95560.75;;;7.36;100.00
75438;BME280;64015;49.392;15.582;2023-02-19T09:43:33;95547.34;;;7.33;100.00
75438;BME280;64015;49.392;15.582;2023-02-19T09:46:03;95564.34;;;7.25;100.00
75438;BME280;64015;49.392;15.582;2023-02-19T09:48:39;95562.97;;;7.13;100.00
75438;BME280;64015;49.392;15.582;2023-02-19T09:55:15;95624.84;;;6.87;100.00
75438;BME280;64015;49.392;15.582;2023-02-19T09:57:43;95579.53;;;6.64;100.00
75438;BME280;64015;49.392;15.582;2023-02-19T10:00:22;95585.66;;;6.48;100.00
75438;BME280;64015;49.392;15.582;2023-02-19T10:02:54;95607.81;;;6.41;100.00
75438;BME280;64015;49.392;15.582;2023-02-19T10:05:25;95588.16;;;6.38;100.00
75438;BME280;64015;49.392;15.582;2023-02-19T10:07:52;95595.94;;;6.33;100.00
75438;BME280;64015;49.392;15.582;2023-02-19T10:12:53;95607.47;;;6.32;100.00
75438;BME280;64015;49.392;15.582;2023-02-19T10:17:52;95623.19;;;6.32;100.00
75438;BME280;64015;49.392;15.582;2023-02-19T10:20:23;95633.91;;;6.30;100.00
75438;BME280;64015;49.392;15.582;2023-02-19T10:23:02;95619.16;;;6.24;100.00
75438;BME280;64015;49.392;15.582;2023-02-19T10:25:28;95624.03;;;6.16;100.00
75438;BME280;64015;49.392;15.582;2023-02-19T10:27:57;95620.84;;;6.14;100.00
75438;BME280;64015;49.392;15.582;2023-02-19T10:30:28;95639.75;;;6.16;100.00
75438;BME280;64015;49.392;15.582;2023-02-19T10:33:14;95631.75;;;6.06;100.00
75438;BME280;64015;49.392;15.582;2023-02-19T10:35:56;95636.50;;;6.09;100.00
75438;BME280;64015;49.392;15.582;2023-02-19T10:38:29;95641.81;;;6.14;100.00
75438;BME280;64015;49.392;15.582;2023-02-19T10:41:20;95662.75;;;6.14;100.00
75438;BME280;64015;49.392;15.582;2023-02-19T10:44:06;95649.09;;;6.12;100.00
75438;BME280;64015;49.392;15.582;2023-02-19T10:46:40;95650.63;;;6.08;100.00
75438;BME280;64015;49.392;15.582;2023-02-19T10:51:48;95640.06;;;6.03;100.00
75438;BME280;64015;49.392;15.582;2023-02-19T10:56:42;95657.09;;;6.22;100.00
75438;BME280;64015;49.392;15.582;2023-02-19T11:02:15;95646.88;;;6.42;100.00
75438;BME280;64015;49.392;15.582;2023-02-19T11:05:01;95646.84;;;6.37;100.00
75438;BME280;64015;49.392;15.582;2023-02-19T11:07:28;95643.56;;;6.47;100.00
75438;BME280;64015;49.392;15.582;2023-02-19T11:09:54;95656.94;;;6.50;100.00
75438;BME280;64015;49.392;15.582;2023-02-19T11:12:29;95653.84;;;6.53;100.00
75438;BME280;64015;49.392;15.582;2023-02-19T11:15:19;95658.72;;;6.66;100.00
75438;BME280;64015;49.392;15.582;2023-02-19T11:17:44;95652.53;;;6.78;100.00
75438;BME280;64015;49.392;15.582;2023-02-19T11:20:14;95647.84;;;6.80;100.00
75438;BME280;64015;49.392;15.582;2023-02-19T11:22:43;95646.56;;;6.82;100.00
75438;BME280;64015;49.392;15.582;2023-02-19T11:28:00;95653.06;;;7.01;100.00
75438;BME280;64015;49.392;15.582;2023-02-19T11:35:45;95647.03;;;7.01;100.00
75438;BME280;64015;49.392;15.582;2023-02-19T11:38:14;95650.66;;;6.95;100.00
75438;BME280;64015;49.392;15.582;2023-02-19T11:56:42;95633.34;;;7.26;100.00
75438;BME280;64015;49.392;15.582;2023-02-19T11:59:26;95631.03;;;7.29;100.00
75438;BME280;64015;49.392;15.582;2023-02-19T12:05:06;95676.88;;;7.48;100.00
75438;BME280;64015;49.392;15.582;2023-02-19T12:13:30;95634.69;;;7.60;100.00
75438;BME280;64015;49.392;15.582;2023-02-19T12:19:00;95626.81;;;7.28;100.00
75438;BME280;64015;49.392;15.582;2023-02-19T12:30:02;95639.75;;;7.08;100.00
75438;BME280;64015;49.392;15.582;2023-02-19T12:32:46;95645.44;;;7.00;100.00
75438;BME280;64015;49.392;15.582;2023-02-19T12:38:01;95644.59;;;6.94;100.00
75438;BME280;64015;49.392;15.582;2023-02-19T12:43:39;95642.69;;;6.85;100.00
75438;BME280;64015;49.392;15.582;2023-02-19T12:46:15;95656.81;;;6.84;100.00
75438;BME280;64015;49.392;15.582;2023-02-19T12:48:49;95669.25;;;6.71;100.00
75438;BME280;64015;49.392;15.582;2023-02-19T12:51:29;95665.97;;;6.59;100.00
75438;BME280;64015;49.392;15.582;2023-02-19T12:54:05;95678.47;;;6.52;100.00
75438;BME280;64015;49.392;15.582;2023-02-19T12:56:41;95681.63;;;6.54;100.00
75438;BME280;64015;49.392;15.582;2023-02-19T12:59:45;95724.97;;;6.07;100.00
75438;BME280;64015;49.392;15.582;2023-02-19T13:02:28;95719.47;;;4.73;100.00
75438;BME280;64015;49.392;15.582;2023-02-19T13:05:07;95732.13;;;4.53;100.00
75438;BME280;64015;49.392;15.582;2023-02-19T13:08:13;95736.56;;;4.40;100.00
75438;BME280;64015;49.392;15.582;2023-02-19T13:13:55;95722.94;;;4.38;100.00
75438;BME280;64015;49.392;15.582;2023-02-19T13:16:25;95742.25;;;4.49;100.00
75438;BME280;64015;49.392;15.582;2023-02-19T13:19:02;95733.81;;;4.59;100.00
75438;BME280;64015;49.392;15.582;2023-02-19T13:21:34;95726.84;;;4.76;100.00
75438;BME280;64015;49.392;15.582;2023-02-19T13:24:25;95728.09;;;4.85;100.00
75438;BME280;64015;49.392;15.582;2023-02-19T13:35:34;95747.19;;;5.14;100.00
75438;BME280;64015;49.392;15.582;2023-02-19T13:38:09;95761.28;;;5.13;100.00
75438;BME280;64015;49.392;15.582;2023-02-19T13:40:53;95761.75;;;5.10;100.00
75438;BME280;64015;49.392;15.582;2023-02-19T13:43:34;95754.16;;;5.08;100.00
75438;BME280;64015;49.392;15.582;2023-02-19T13:46:10;95762.47;;;5.05;100.00
75438;BME280;64015;49.392;15.582;2023-02-19T13:48:39;95767.69;;;5.05;100.00
75438;BME280;64015;49.392;15.582;2023-02-19T13:59:01;95784.59;;;4.63;100.00
75438;BME280;64015;49.392;15.582;2023-02-19T14:12:02;95791.50;;;4.69;100.00
75438;BME280;64015;49.392;15.582;2023-02-19T14:19:46;95801.97;;;4.80;100.00
75438;BME280;64015;49.392;15.582;2023-02-19T14:25:27;95805.91;;;4.95;100.00
75438;BME280;64015;49.392;15.582;2023-02-19T14:30:51;95822.97;;;4.85;100.00
75438;BME280;64015;49.392;15.582;2023-02-19T14:33:23;95825.13;;;4.77;100.00
75438;BME280;64015;49.392;15.582;2023-02-19T14:35:53;95820.13;;;4.87;100.00
75438;BME280;64015;49.392;15.582;2023-02-19T14:38:45;95819.47;;;4.80;100.00
75438;BME280;64015;49.392;15.582;2023-02-19T14:41:13;95841.97;;;4.81;100.00
75438;BME280;64015;49.392;15.582;2023-02-19T14:43:50;95833.19;;;4.75;100.00
75438;BME280;64015;49.392;15.582;2023-02-19T14:46:30;95839.22;;;4.64;100.00
75438;BME280;64015;49.392;15.582;2023-02-19T14:49:11;95833.75;;;4.66;100.00
75438;BME280;64015;49.392;15.582;2023-02-19T14:51:41;95845.81;;;4.67;100.00
75438;BME280;64015;49.392;15.582;2023-02-19T14:54:16;95843.91;;;4.62;100.00
75438;BME280;64015;49.392;15.582;2023-02-19T14:56:46;95850.72;;;4.63;100.00
75438;BME280;64015;49.392;15.582;2023-02-19T14:59:31;95859.88;;;4.66;100.00
75438;BME280;64015;49.392;15.582;2023-02-19T15:01:59;95871.25;;;4.60;100.00
75438;BME280;64015;49.392;15.582;2023-02-19T15:04:28;95876.03;;;4.51;100.00
75438;BME280;64015;49.392;15.582;2023-02-19T15:06:56;95875.81;;;4.53;100.00
75438;BME280;64015;49.392;15.582;2023-02-19T15:09:30;95884.53;;;4.46;100.00
75438;BME280;64015;49.392;15.582;2023-02-19T15:11:57;95904.63;;;4.34;100.00
75438;BME280;64015;49.392;15.582;2023-02-19T15:14:24;95899.72;;;4.26;100.00
75438;BME280;64015;49.392;15.582;2023-02-19T15:17:02;95912.53;;;4.28;100.00
75438;BME280;64015;49.392;15.582;2023-02-19T15:19:32;95924.41;;;4.12;100.00
75438;BME280;64015;49.392;15.582;2023-02-19T15:21:59;95938.28;;;4.12;100.00
75438;BME280;64015;49.392;15.582;2023-02-19T15:24:26;95927.03;;;4.12;100.00
75438;BME280;64015;49.392;15.582;2023-02-19T15:26:53;95925.09;;;4.07;100.00
75438;BME280;64015;49.392;15.582;2023-02-19T15:29:25;95928.25;;;4.09;100.00
75438;BME280;64015;49.392;15.582;2023-02-19T15:31:54;95946.31;;;4.11;100.00